createdAt,value
2019-01-21T06:03:43.225Z,-9.02
2019-01-21T06:09:01.402Z,-8.97
2019-01-21T06:12:05.148Z,-9.02
2019-01-21T06:13:04.261Z,-9.00
2019-01-21T06:14:04.460Z,-8.91
2019-01-21T06:15:04.279Z,-9.00
2019-01-21T06:45:52.831Z,-8.85
2019-01-21T06:46:53.768Z,-8.88
2019-01-21T06:47:49.280Z,-8.85
2019-01-21T06:48:49.276Z,-8.84
2019-01-21T06:49:49.290Z,-8.81
2019-01-21T06:50:49.245Z,-8.85
2019-01-21T06:51:49.269Z,-8.92
2019-01-21T06:52:49.215Z,-9.02
2019-01-21T06:53:49.263Z,-9.05
2019-01-21T06:54:49.197Z,-9.02
2019-01-21T06:55:49.224Z,-9.00
2019-01-21T06:56:49.188Z,-9.02
2019-01-21T06:57:49.181Z,-9.06
2019-01-21T06:58:49.175Z,-9.02
2019-01-21T06:59:49.179Z,-9.02
2019-01-21T07:00:49.137Z,-9.06
2019-01-21T07:01:49.133Z,-8.99
2019-01-21T07:02:49.130Z,-9.03
2019-01-21T07:03:49.348Z,-8.99
2019-01-21T07:04:49.100Z,-9.00
2019-01-21T07:05:49.123Z,-8.99
2019-01-21T07:06:49.091Z,-8.92
2019-01-21T07:07:49.062Z,-8.96
2019-01-21T07:08:49.139Z,-8.97
2019-01-21T07:09:49.047Z,-8.99
2019-01-21T07:10:49.101Z,-9.02
2019-01-21T07:11:49.018Z,-8.99
2019-01-21T07:12:49.026Z,-8.97
2019-01-21T07:13:49.004Z,-8.94
2019-01-21T07:14:49.032Z,-8.99
2019-01-21T07:15:48.983Z,-9.02
2019-01-21T07:16:49.015Z,-8.96
2019-01-21T07:17:48.963Z,-8.96
2019-01-21T07:18:48.957Z,-8.92
2019-01-21T07:19:48.943Z,-9.00
2019-01-21T07:20:48.961Z,-8.84
2019-01-21T07:21:48.922Z,-8.86
2019-01-21T07:22:48.930Z,-8.82
2019-01-21T07:23:48.898Z,-8.86
2019-01-21T07:24:48.906Z,-8.86
2019-01-21T07:25:48.897Z,-8.86
2019-01-21T07:26:48.890Z,-8.86
2019-01-21T07:27:48.857Z,-8.89
2019-01-21T07:28:48.850Z,-8.94
2019-01-21T07:29:48.849Z,-8.96
2019-01-21T07:30:48.826Z,-8.97
2019-01-21T07:31:48.830Z,-8.97
2019-01-21T07:32:48.805Z,-9.00
2019-01-21T07:33:48.833Z,-8.94
2019-01-21T07:34:48.783Z,-9.00
2019-01-21T07:35:48.852Z,-8.99
2019-01-21T07:36:48.770Z,-8.91
2019-01-21T07:37:48.763Z,-8.94
2019-01-21T07:38:48.745Z,-8.86
2019-01-21T07:39:48.762Z,-8.88
2019-01-21T07:40:48.719Z,-8.86
2019-01-21T07:41:48.727Z,-8.86
2019-01-21T07:42:48.699Z,-8.84
2019-01-21T07:43:48.697Z,-8.86
2019-01-21T07:44:48.683Z,-8.84
2019-01-21T07:45:48.697Z,-8.86
2019-01-21T07:46:48.658Z,-8.79
2019-01-21T07:47:48.655Z,-8.78
2019-01-21T07:48:48.653Z,-8.78
2019-01-21T07:49:48.636Z,-8.82
2019-01-21T07:50:48.648Z,-8.79
2019-01-21T07:51:48.624Z,-8.81
2019-01-21T07:52:48.600Z,-8.79
2019-01-21T07:53:48.587Z,-8.81
2019-01-21T07:54:48.615Z,-8.81
2019-01-21T07:55:48.585Z,-8.82
2019-01-21T07:56:48.573Z,-8.86
2019-01-21T07:57:48.544Z,-8.81
2019-01-21T07:58:48.545Z,-8.70
2019-01-21T07:59:48.522Z,-8.64
2019-01-21T08:00:48.532Z,-8.71
2019-01-21T08:01:48.528Z,-8.71
2019-01-21T08:02:48.496Z,-8.71
2019-01-21T08:03:48.491Z,-8.66
2019-01-21T08:04:48.472Z,-8.73
2019-01-21T08:05:48.473Z,-8.66
2019-01-21T08:06:48.519Z,-8.68
2019-01-21T08:07:48.444Z,-8.70
2019-01-21T08:08:48.433Z,-8.70
2019-01-21T08:09:48.430Z,-8.61
2019-01-21T08:10:48.412Z,-8.70
2019-01-21T08:11:48.423Z,-8.55
2019-01-21T08:12:48.571Z,-8.66
2019-01-21T08:13:48.402Z,-8.64
2019-01-21T08:14:48.375Z,-8.64
2019-01-21T08:15:48.361Z,-8.58
2019-01-21T08:16:48.354Z,-8.55
2019-01-21T08:17:48.358Z,-8.47
2019-01-21T08:18:48.355Z,-8.50
2019-01-21T08:19:48.325Z,-8.49
2019-01-21T08:20:48.310Z,-8.43
2019-01-21T08:21:48.300Z,-8.34
2019-01-21T08:22:48.314Z,-8.42
2019-01-21T08:23:48.302Z,-8.24
2019-01-21T08:24:48.302Z,-8.32
2019-01-21T08:25:48.271Z,-8.29
2019-01-21T08:26:48.248Z,-8.31
2019-01-21T08:27:48.239Z,-8.16
2019-01-21T08:28:48.228Z,-8.10
2019-01-21T08:29:48.245Z,-8.07
2019-01-21T08:30:48.253Z,-8.08
2019-01-21T08:31:48.198Z,-8.04
2019-01-21T08:32:48.184Z,-7.99
2019-01-21T08:33:48.204Z,-7.94
2019-01-21T08:34:48.174Z,-7.88
2019-01-21T08:35:48.158Z,-7.92
2019-01-21T08:36:48.172Z,-7.87
2019-01-21T08:37:48.137Z,-7.68
2019-01-21T08:38:48.120Z,-7.70
2019-01-21T08:39:48.752Z,-7.62
2019-01-21T08:40:48.094Z,-7.53
2019-01-21T08:41:48.097Z,-7.50
2019-01-21T08:42:48.121Z,-7.42
2019-01-21T08:43:48.080Z,-7.37
2019-01-21T08:44:48.112Z,-7.29
2019-01-21T08:45:48.052Z,-7.21
2019-01-21T08:46:48.037Z,-7.24
2019-01-21T08:47:48.068Z,-7.11
2019-01-21T08:48:48.037Z,-7.03
2019-01-21T08:49:48.011Z,-6.85
2019-01-21T08:50:48.068Z,-6.85
2019-01-21T08:51:47.988Z,-6.90
2019-01-21T08:52:47.977Z,-6.89
2019-01-21T08:53:47.974Z,-6.84
2019-01-21T08:54:47.966Z,-6.71
2019-01-21T08:55:47.955Z,-6.69
2019-01-21T08:56:47.958Z,-6.48
2019-01-21T08:57:47.920Z,-6.48
2019-01-21T08:58:47.915Z,-6.42
2019-01-21T08:59:47.942Z,-6.31
2019-01-21T09:00:47.889Z,-6.27
2019-01-21T09:01:47.881Z,-6.23
2019-01-21T09:02:47.896Z,-6.14
2019-01-21T09:03:47.864Z,-6.09
2019-01-21T09:04:47.850Z,-5.96
2019-01-21T09:05:47.861Z,-5.96
2019-01-21T09:06:47.821Z,-5.85
2019-01-21T09:07:47.852Z,-5.80
2019-01-21T09:08:47.836Z,-5.66
2019-01-21T09:09:47.796Z,-5.70
2019-01-21T09:10:47.784Z,-5.52
2019-01-21T09:11:47.814Z,-5.59
2019-01-21T09:12:47.763Z,-5.59
2019-01-21T09:13:47.773Z,-5.49
2019-01-21T09:14:47.767Z,-5.38
2019-01-21T09:15:47.733Z,-5.38
2019-01-21T09:16:47.733Z,-5.33
2019-01-21T09:17:47.743Z,-5.17
2019-01-21T09:18:47.727Z,-5.23
2019-01-21T09:19:47.688Z,-5.20
2019-01-21T09:20:47.672Z,-5.13
2019-01-21T09:21:47.665Z,-5.05
2019-01-21T09:22:47.691Z,-5.08
2019-01-21T09:23:47.683Z,-4.97
2019-01-21T09:24:47.628Z,-4.93
2019-01-21T09:25:47.633Z,-4.84
2019-01-21T09:26:47.620Z,-4.90
2019-01-21T09:27:47.604Z,-4.84
2019-01-21T09:28:47.591Z,-4.85
2019-01-21T09:29:47.624Z,-4.88
2019-01-21T09:30:47.599Z,-4.74
2019-01-21T09:31:47.559Z,-4.72
2019-01-21T09:32:47.542Z,-4.72
2019-01-21T09:33:47.534Z,-4.69
2019-01-21T09:34:47.527Z,-4.65
2019-01-21T09:35:47.533Z,-4.62
2019-01-21T09:36:47.521Z,-4.62
2019-01-21T09:37:47.505Z,-4.58
2019-01-21T09:38:47.488Z,-4.46
2019-01-21T09:39:47.476Z,-4.46
2019-01-21T09:40:47.491Z,-4.48
2019-01-21T09:41:47.448Z,-4.46
2019-01-21T09:42:47.456Z,-4.41
2019-01-21T09:43:47.432Z,-4.36
2019-01-21T09:44:47.420Z,-4.28
2019-01-21T09:45:47.413Z,-4.36
2019-01-21T09:46:47.447Z,-4.38
2019-01-21T09:47:47.392Z,-4.34
2019-01-21T09:48:47.379Z,-4.30
2019-01-21T09:49:47.418Z,-4.28
2019-01-21T09:50:47.386Z,-4.28
2019-01-21T09:51:47.357Z,-4.27
2019-01-21T09:52:47.916Z,-4.23
2019-01-21T09:53:47.323Z,-4.22
2019-01-21T09:54:47.318Z,-4.12
2019-01-21T09:55:47.324Z,-4.16
2019-01-21T09:56:47.331Z,-4.10
2019-01-21T09:57:47.288Z,-4.20
2019-01-21T09:58:47.270Z,-4.17
2019-01-21T09:59:47.261Z,-4.17
2019-01-21T10:00:47.251Z,-4.23
2019-01-21T10:01:47.261Z,-4.13
2019-01-21T10:02:47.256Z,-4.09
2019-01-21T10:03:47.238Z,-4.10
2019-01-21T10:04:47.208Z,-4.01
2019-01-21T10:05:47.213Z,-4.01
2019-01-21T10:06:47.211Z,-4.02
2019-01-21T10:07:47.174Z,-3.92
2019-01-21T10:08:47.209Z,-3.80
2019-01-21T10:09:47.158Z,-3.74
2019-01-21T10:10:47.144Z,-3.77
2019-01-21T10:11:47.180Z,-3.76
2019-01-21T10:12:47.162Z,-3.70
2019-01-21T10:13:47.114Z,-3.68
2019-01-21T10:14:47.146Z,-3.65
2019-01-21T10:15:47.123Z,-3.68
2019-01-21T10:16:47.086Z,-3.64
2019-01-21T10:17:47.073Z,-3.61
2019-01-21T10:18:47.082Z,-3.55
2019-01-21T10:19:50.453Z,-3.57
2019-01-21T10:20:47.049Z,-3.57
2019-01-21T10:21:47.070Z,-3.59
2019-01-21T10:22:47.067Z,-3.41
2019-01-21T10:23:47.011Z,-3.51
2019-01-21T10:24:47.006Z,-3.39
2019-01-21T10:25:46.993Z,-3.44
2019-01-21T10:26:47.009Z,-3.37
2019-01-21T10:27:47.010Z,-3.34
2019-01-21T10:28:46.981Z,-3.31
2019-01-21T10:29:46.980Z,-3.36
2019-01-21T10:30:46.950Z,-3.28
2019-01-21T10:31:46.935Z,-3.25
2019-01-21T10:32:46.966Z,-3.21
2019-01-21T10:33:46.911Z,-3.21
2019-01-21T10:34:46.892Z,-3.13
2019-01-21T10:35:46.984Z,-3.07
2019-01-21T10:36:46.886Z,-3.12
2019-01-21T10:37:46.867Z,-3.04
2019-01-21T10:38:46.861Z,-3.04
2019-01-21T10:39:46.847Z,-2.95
2019-01-21T10:40:46.838Z,-3.07
2019-01-21T10:41:46.859Z,-2.97
2019-01-21T10:42:46.822Z,-2.98
2019-01-21T10:43:46.810Z,-3.00
2019-01-21T10:44:46.797Z,-2.84
2019-01-21T10:45:46.809Z,-2.71
2019-01-21T10:46:46.779Z,-2.69
2019-01-21T10:47:46.859Z,-2.71
2019-01-21T10:48:46.756Z,-2.56
2019-01-21T10:49:46.743Z,-2.53
2019-01-21T10:50:46.766Z,-2.48
2019-01-21T10:51:46.719Z,-2.50
2019-01-21T10:52:46.794Z,-2.50
2019-01-21T10:53:46.703Z,-2.50
2019-01-21T10:54:46.686Z,-2.44
2019-01-21T10:55:46.722Z,-2.41
2019-01-21T10:56:47.473Z,-2.32
2019-01-21T10:57:46.682Z,-2.25
2019-01-21T10:58:46.646Z,-2.22
2019-01-21T10:59:46.692Z,-2.29
2019-01-21T11:00:46.642Z,-2.18
2019-01-21T11:01:46.611Z,-2.13
2019-01-21T11:02:46.637Z,-2.10
2019-01-21T11:03:46.672Z,-2.10
2019-01-21T11:04:46.581Z,-2.14
2019-01-21T11:05:46.573Z,-2.00
2019-01-21T11:06:46.567Z,-1.95
2019-01-21T11:07:46.603Z,-1.95
2019-01-21T11:08:46.557Z,-2.08
2019-01-21T11:09:46.535Z,-1.90
2019-01-21T11:10:46.510Z,-1.90
2019-01-21T11:11:53.824Z,-1.83
2019-01-21T11:12:47.488Z,-1.68
2019-01-21T11:13:46.513Z,-1.72
2019-01-21T11:14:46.556Z,-1.57
2019-01-21T11:15:46.460Z,-1.50
2019-01-21T11:16:46.480Z,-1.54
2019-01-21T11:17:46.442Z,-1.54
2019-01-21T11:18:46.454Z,-1.49
2019-01-21T11:19:46.436Z,-1.49
2019-01-21T11:20:46.443Z,-1.53
2019-01-21T11:21:46.400Z,-1.49
2019-01-21T11:22:46.390Z,-1.49
2019-01-21T11:23:46.375Z,-1.35
2019-01-21T11:24:46.410Z,-1.38
2019-01-21T11:25:46.354Z,-1.44
2019-01-21T11:26:46.352Z,-1.28
2019-01-21T11:27:46.327Z,-1.31
2019-01-21T11:28:46.404Z,-1.29
2019-01-21T11:29:46.331Z,-1.26
2019-01-21T11:30:46.346Z,-1.26
2019-01-21T11:31:46.300Z,-1.21
2019-01-21T11:32:46.304Z,-1.26
2019-01-21T11:33:46.269Z,-1.17
2019-01-21T11:34:46.260Z,-1.18
2019-01-21T11:35:46.275Z,-1.18
2019-01-21T11:36:46.292Z,-1.20
2019-01-21T11:37:46.232Z,-1.15
2019-01-21T11:38:46.216Z,-1.07
2019-01-21T11:39:46.237Z,-1.17
2019-01-21T11:40:46.285Z,-1.18
2019-01-21T11:41:46.184Z,-1.18
2019-01-21T11:42:46.173Z,-1.14
2019-01-21T11:43:46.161Z,-1.18
2019-01-21T11:44:46.166Z,-1.13
2019-01-21T11:45:46.141Z,-1.11
2019-01-21T11:46:46.144Z,-1.15
2019-01-21T11:47:46.116Z,-1.20
2019-01-21T11:48:46.105Z,-1.18
2019-01-21T11:49:46.093Z,-1.15
2019-01-21T11:50:46.084Z,-1.10
2019-01-21T11:51:46.099Z,-0.99
2019-01-21T11:52:46.068Z,-0.96
2019-01-21T11:53:46.082Z,-0.92
2019-01-21T11:54:46.052Z,-0.92
2019-01-21T11:55:46.028Z,-0.93
2019-01-21T11:56:46.051Z,-0.89
2019-01-21T11:57:46.061Z,-0.90
2019-01-21T11:58:46.008Z,-0.86
2019-01-21T11:59:45.997Z,-0.89
2019-01-21T12:00:45.977Z,-0.89
2019-01-21T12:01:45.987Z,-0.81
2019-01-21T12:02:45.960Z,-0.80
2019-01-21T12:03:45.964Z,-0.78
2019-01-21T12:04:45.939Z,-0.73
2019-01-21T12:05:45.973Z,-0.62
2019-01-21T12:06:45.921Z,-0.71
2019-01-21T12:07:45.942Z,-0.62
2019-01-21T12:08:45.889Z,-0.65
2019-01-21T12:09:45.889Z,-0.62
2019-01-21T12:10:45.956Z,-0.62
2019-01-21T12:11:46.026Z,-0.56
2019-01-21T12:12:45.851Z,-0.63
2019-01-21T12:13:45.872Z,-0.53
2019-01-21T12:14:45.832Z,-0.45
2019-01-21T12:15:45.969Z,-0.44
2019-01-21T12:16:45.815Z,-0.38
2019-01-21T12:17:45.793Z,-0.41
2019-01-21T12:18:45.816Z,-0.39
2019-01-21T12:19:45.869Z,-0.45
2019-01-21T12:20:45.767Z,-0.56
2019-01-21T12:21:45.754Z,-0.47
2019-01-21T12:22:45.749Z,-0.42
2019-01-21T12:23:45.734Z,-0.55
2019-01-21T12:24:45.747Z,-0.47
2019-01-21T12:25:45.806Z,-0.45
2019-01-21T12:26:45.711Z,-0.39
2019-01-21T12:27:45.744Z,-0.42
2019-01-21T12:28:45.689Z,-0.42
2019-01-21T12:29:45.701Z,-0.50
2019-01-21T12:30:45.659Z,-0.41
2019-01-21T12:31:45.679Z,-0.38
2019-01-21T12:32:45.649Z,-0.32
2019-01-21T12:33:45.662Z,-0.30
2019-01-21T12:34:45.625Z,-0.20
2019-01-21T12:35:45.637Z,-0.20
2019-01-21T12:36:45.600Z,-0.20
2019-01-21T12:37:45.613Z,-0.19
2019-01-21T12:38:45.577Z,-0.19
2019-01-21T12:39:45.596Z,-0.21
2019-01-21T12:40:45.844Z,-0.08
2019-01-21T12:41:59.219Z,-0.08
2019-01-21T12:42:45.985Z,-0.08
2019-01-21T12:43:46.378Z,-0.02
2019-01-21T12:44:45.561Z,0.04
2019-01-21T12:45:45.492Z,0.02
2019-01-21T12:46:45.496Z,0.12
2019-01-21T12:47:45.487Z,0.08
2019-01-21T12:48:45.480Z,0.12
2019-01-21T12:49:45.476Z,0.12
2019-01-21T12:50:45.443Z,0.13
2019-01-21T12:51:46.318Z,0.19
2019-01-21T12:52:45.420Z,0.25
2019-01-21T12:53:45.417Z,0.30
2019-01-21T13:25:10.211Z,0.67
2019-01-21T13:26:09.855Z,0.64
2019-01-21T13:27:09.823Z,0.56
2019-01-21T13:28:09.783Z,0.51
2019-01-21T13:29:09.921Z,0.57
2019-01-21T13:30:09.619Z,0.64
2019-01-21T13:31:09.605Z,0.59
2019-01-21T13:32:09.627Z,0.52
2019-01-21T13:33:18.376Z,0.59
2019-01-21T13:34:09.682Z,0.60
2019-01-21T13:35:09.888Z,0.67
2019-01-21T13:36:09.652Z,0.67
2019-01-21T13:37:09.602Z,0.68
2019-01-21T13:38:09.519Z,0.64
2019-01-21T13:39:09.551Z,0.67
2019-01-21T13:40:09.561Z,0.64
2019-01-21T13:41:09.484Z,0.64
2019-01-21T13:42:09.500Z,0.68
2019-01-21T13:43:09.532Z,0.77
2019-01-21T13:44:09.454Z,0.74
2019-01-21T13:46:26.648Z,0.71
2019-01-21T13:47:26.534Z,0.64
2019-01-21T13:48:26.254Z,0.63
2019-01-21T13:50:44.507Z,0.60
2019-01-21T13:51:43.095Z,0.57
2019-01-21T13:52:43.183Z,0.52
2019-01-21T13:53:43.099Z,0.52
2019-01-21T13:56:00.265Z,0.71
2019-01-21T13:56:59.772Z,0.75
2019-01-21T13:57:59.714Z,0.68
2019-01-21T13:58:59.777Z,0.81
2019-01-21T13:59:59.648Z,0.72
2019-01-21T14:00:59.674Z,0.68
2019-01-21T14:01:59.623Z,0.64
2019-01-21T14:06:30.556Z,0.78
2019-01-21T14:07:30.449Z,0.72
2019-01-21T14:08:30.495Z,0.75
2019-01-21T14:09:39.359Z,0.80
2019-01-21T14:10:30.492Z,0.78
2019-01-21T14:11:30.442Z,0.75
2019-01-21T14:12:30.724Z,0.80
2019-01-21T14:13:30.440Z,0.68
2019-01-21T14:14:30.359Z,0.71
2019-01-21T14:15:30.328Z,0.74
2019-01-21T14:19:07.217Z,0.75
2019-01-21T14:20:07.134Z,0.77
2019-01-21T14:21:07.047Z,0.80
2019-01-21T14:22:06.706Z,0.82
2019-01-21T14:23:06.615Z,0.81
2019-01-21T14:24:06.666Z,0.80
2019-01-21T14:25:06.652Z,0.77
2019-01-21T14:26:06.587Z,0.75
2019-01-21T14:27:06.578Z,0.75
2019-01-21T14:28:06.701Z,0.78
2019-01-21T14:29:06.557Z,0.84
2019-01-21T14:30:06.545Z,0.80
2019-01-21T14:31:06.560Z,0.81
2019-01-21T14:32:06.571Z,0.75
2019-01-21T14:33:06.515Z,0.72
2019-01-21T14:34:06.534Z,0.71
2019-01-21T14:35:06.537Z,0.71
2019-01-21T14:36:06.512Z,0.75
2019-01-21T14:37:06.550Z,0.74
2019-01-21T14:38:06.554Z,0.80
2019-01-21T14:39:06.510Z,0.74
2019-01-21T14:40:06.530Z,0.74
2019-01-21T14:41:06.530Z,0.78
2019-01-21T14:42:06.463Z,0.72
2019-01-21T14:43:08.595Z,0.74
2019-01-21T14:44:06.451Z,0.72
2019-01-21T14:45:06.427Z,0.70
2019-01-21T14:46:06.499Z,0.68
2019-01-21T14:47:06.416Z,0.62
2019-01-21T14:48:06.550Z,0.72
2019-01-21T14:49:06.485Z,0.75
2019-01-21T14:50:06.399Z,0.74
2019-01-21T14:51:06.371Z,0.77
2019-01-21T14:52:06.323Z,0.68
2019-01-21T14:53:06.357Z,0.68
2019-01-21T14:54:06.292Z,0.71
2019-01-21T14:55:06.554Z,0.62
2019-01-21T15:10:11.440Z,0.31
2019-01-21T15:11:15.658Z,0.34
2019-01-21T15:12:11.925Z,0.30
2019-01-21T15:13:10.894Z,0.35
2019-01-21T15:14:11.602Z,0.38
2019-01-21T15:21:38.742Z,0.31
2019-01-21T15:22:50.376Z,0.33
2019-01-21T15:29:17.388Z,0.05
2019-01-21T15:30:17.070Z,0.13
2019-01-21T15:31:16.945Z,-0.03
2019-01-21T15:32:19.862Z,-0.03
2019-01-21T15:33:25.227Z,0.02
2019-01-21T15:34:17.132Z,-0.09
2019-01-21T15:35:20.679Z,-0.20
2019-01-21T15:36:17.554Z,-0.19
2019-01-21T15:38:46.715Z,-0.26
2019-01-21T15:39:57.567Z,-0.32
2019-01-21T15:40:45.961Z,-0.35
2019-01-21T15:41:45.696Z,-0.39
2019-01-21T15:42:46.287Z,-0.31
2019-01-21T15:43:45.455Z,-0.41
2019-01-21T15:44:45.377Z,-0.47
2019-01-21T15:45:50.138Z,-0.52
2019-01-21T15:46:46.259Z,-0.52
2019-01-21T15:47:45.243Z,-0.60
2019-01-21T15:48:45.165Z,-0.71
2019-01-21T15:49:45.218Z,-0.65
2019-01-21T15:50:45.149Z,-0.68
2019-01-21T15:51:45.114Z,-0.78
2019-01-21T15:52:45.106Z,-0.85
2019-01-21T15:53:45.140Z,-0.83
2019-01-21T15:54:45.071Z,-0.90
2019-01-21T15:55:45.090Z,-0.86
2019-01-21T15:56:45.068Z,-0.93
2019-01-21T15:57:45.060Z,-1.02
2019-01-21T15:58:45.065Z,-1.05
2019-01-21T15:59:45.037Z,-1.05
2019-01-21T16:00:45.007Z,-1.08
2019-01-21T16:01:45.013Z,-1.02
2019-01-21T16:02:45.016Z,-1.13
2019-01-21T16:07:06.049Z,-1.20
2019-01-21T16:08:06.381Z,-1.25
2019-01-21T16:09:05.625Z,-1.32
2019-01-21T16:10:08.398Z,-1.32
2019-01-21T16:33:09.397Z,-2.04
2019-01-21T16:50:44.118Z,-2.56
2019-01-21T16:51:43.538Z,-2.64
2019-01-21T16:57:01.683Z,-2.65
2019-01-21T17:08:06.666Z,-2.95
2019-01-21T17:23:27.722Z,-3.13
2019-01-21T17:24:27.328Z,-3.18
2019-01-21T17:25:27.573Z,-3.18
2019-01-21T17:26:27.305Z,-3.13
2019-01-21T17:27:27.231Z,-3.26
2019-01-21T17:28:27.171Z,-3.34
2019-01-21T17:29:27.801Z,-3.26
2019-01-21T17:31:49.508Z,-3.33
2019-01-21T17:32:49.378Z,-3.31
2019-01-21T17:33:49.027Z,-3.34
2019-01-21T17:34:49.208Z,-3.30
2019-01-21T17:35:49.044Z,-3.41
2019-01-21T17:36:49.107Z,-3.30
2019-01-21T17:37:48.992Z,-3.39
2019-01-21T17:38:48.858Z,-3.37
2019-01-21T17:39:48.857Z,-3.47
2019-01-21T17:40:48.903Z,-3.43
2019-01-21T18:03:02.882Z,-3.74
2019-01-21T18:04:02.218Z,-3.76
2019-01-21T18:05:03.517Z,-3.81
2019-01-21T18:06:02.746Z,-3.88
2019-01-21T18:07:01.991Z,-3.81
2019-01-21T18:08:02.069Z,-3.84
2019-01-21T18:09:02.207Z,-3.91
2019-01-21T18:16:47.972Z,-4.06
2019-01-21T18:17:47.844Z,-4.02
2019-01-21T18:18:47.625Z,-4.04
2019-01-21T18:19:47.406Z,-4.09
2019-01-21T19:13:37.773Z,-4.59
2019-01-21T19:14:37.368Z,-4.66
2019-01-21T19:25:05.580Z,-4.79
2019-01-21T19:26:05.005Z,-4.88
2019-01-21T19:28:00.811Z,-4.84
2019-01-21T19:29:00.607Z,-4.87
2019-01-21T19:32:58.609Z,-4.88
2019-01-21T19:40:56.865Z,-4.99
2019-01-21T19:43:39.171Z,-5.03
2019-01-21T19:44:46.133Z,-5.11
2019-01-21T19:50:17.849Z,-5.09
2019-01-21T19:52:17.992Z,-5.09
2019-01-21T19:53:16.962Z,-5.13
2019-01-21T19:54:16.896Z,-5.09
2019-01-21T19:55:16.916Z,-5.17
2019-01-21T19:56:16.910Z,-5.12
2019-01-21T19:57:16.876Z,-5.01
2019-01-21T19:58:16.846Z,-5.11
2019-01-21T19:59:16.834Z,-4.99
2019-01-21T20:08:27.023Z,-5.11
2019-01-21T20:09:28.914Z,-5.11
2019-01-21T20:10:32.752Z,-5.11
2019-01-21T20:11:27.702Z,-5.11
2019-01-21T20:12:27.043Z,-5.16
2019-01-21T20:13:27.135Z,-5.17
2019-01-21T20:14:26.843Z,-5.11
2019-01-21T20:15:27.968Z,-5.17
2019-01-21T20:16:27.317Z,-5.16
2019-01-21T20:17:27.775Z,-5.16
2019-01-21T20:18:27.496Z,-5.23
2019-01-21T20:19:27.409Z,-5.23
2019-01-21T20:38:18.687Z,-5.46
2019-01-21T20:39:18.721Z,-5.48
2019-01-21T20:40:18.801Z,-5.41
2019-01-21T20:41:18.588Z,-5.51
2019-01-21T20:42:18.572Z,-5.48
2019-01-21T20:43:18.571Z,-5.53
2019-01-21T20:44:18.712Z,-5.53
2019-01-21T20:45:23.330Z,-5.55
2019-01-21T20:46:18.471Z,-5.59
2019-01-21T20:47:18.349Z,-5.62
2019-01-21T20:48:18.459Z,-5.55
2019-01-21T20:49:18.306Z,-5.70
2019-01-21T22:27:17.030Z,-6.72
2019-01-21T23:28:56.941Z,-7.16
2019-01-21T23:29:55.176Z,-7.14
2019-01-21T23:30:57.540Z,-7.13
2019-01-21T23:31:54.780Z,-7.13
2019-01-21T23:32:54.787Z,-7.17
2019-01-21T23:33:54.752Z,-7.11
2019-01-21T23:34:54.696Z,-7.17
2019-01-21T23:37:18.970Z,-7.08
2019-01-21T23:38:17.127Z,-7.11
2019-01-21T23:39:18.184Z,-7.18
2019-01-21T23:40:17.671Z,-7.17
2019-01-21T23:41:16.901Z,-7.13
2019-01-21T23:42:16.689Z,-7.24
2019-01-21T23:43:19.654Z,-7.23
2019-01-21T23:44:16.727Z,-7.21
2019-01-21T23:45:16.646Z,-7.27
